Time;durP1;ratioP1;P1;durP2;ratioP2;P2;SDS_P1;SDS_P2;PMS_P1;PMS_P2;Temp;Humidity;BMP_temperature;BMP_pressure;BME280_temperature;BME280_humidity;BME280_pressure;Samples;Min_cycle;Max_cycle;Signal;HPM_P1;HPM_P2
2023/04/28 00:00:19;;;;;;;;;;;;;;;24.98;45.02;97166.02;619677;229;65098;-59
2023/04/28 00:02:47;;;;;;;;;;;;;;;24.97;44.97;97164.44;619309;228;68445;-59
2023/04/28 00:05:15;;;;;;;;;;;;;;;24.98;46.22;97170.61;619936;228;66577;-59
2023/04/28 00:07:43;;;;;;;;;;;;;;;24.96;45.67;97157.48;619294;229;65047;-59
2023/04/28 00:10:10;;;;;;;;;;;;;;;24.95;44.03;97166.61;619281;229;66900;-59
2023/04/28 00:12:38;;;;;;;;;;;;;;;24.95;45.65;97155.86;620172;228;66679;-59
2023/04/28 00:15:06;;;;;;;;;;;;;;;24.96;45.91;97162.86;619579;228;62951;-58
2023/04/28 00:17:34;;;;;;;;;;;;;;;24.95;44.69;97163.92;619490;229;68761;-59
2023/04/28 00:20:01;;;;;;;;;;;;;;;24.94;45.30;97159.66;620034;229;66587;-59
2023/04/28 00:22:30;;;;;;;;;;;;;;;24.94;46.94;97162.34;620087;228;64928;-59
2023/04/28 00:24:57;;;;;;;;;;;;;;;24.91;43.74;97154.86;621088;228;68879;-59
2023/04/28 00:27:25;;;;;;;;;;;;;;;24.91;46.49;97160.24;619330;228;68689;-59
2023/04/28 00:29:53;;;;;;;;;;;;;;;24.90;44.15;97161.31;619415;229;63032;-59
2023/04/28 00:32:20;;;;;;;;;;;;;;;24.91;46.12;97168.30;619708;229;68714;-59
2023/04/28 00:34:48;;;;;;;;;;;;;;;24.90;45.43;97161.31;619505;228;68802;-59
2023/04/28 00:37:16;;;;;;;;;;;;;;;24.89;43.67;97164.31;619398;228;66012;-59
2023/04/28 00:39:48;;;;;;;;;;;;;;;24.89;45.83;97172.38;619821;229;66343;-59
2023/04/28 00:42:13;;;;;;;;;;;;;;;24.89;44.65;97172.38;619214;228;68699;-59
2023/04/28 00:44:41;;;;;;;;;;;;;;;24.87;44.50;97180.72;619428;228;65022;-59
2023/04/28 00:47:09;;;;;;;;;;;;;;;24.87;45.61;97178.03;618282;228;66589;-59
2023/04/28 00:49:36;;;;;;;;;;;;;;;24.87;45.67;97179.92;618823;228;66222;-59
2023/04/28 00:52:05;;;;;;;;;;;;;;;24.86;45.15;97181.82;618393;229;65025;-59
2023/04/28 00:54:33;;;;;;;;;;;;;;;24.85;45.30;97182.89;619103;229;68690;-59
2023/04/28 00:57:04;;;;;;;;;;;;;;;24.84;45.85;97178.62;619758;229;68827;-59
2023/04/28 00:59:32;;;;;;;;;;;;;;;24.83;44.36;97182.41;619771;229;62661;-59
2023/04/28 01:02:00;;;;;;;;;;;;;;;24.84;45.56;97185.89;619287;228;68818;-59
2023/04/28 01:04:28;;;;;;;;;;;;;;;24.83;45.94;97184.27;620290;228;66606;-59
2023/04/28 01:06:56;;;;;;;;;;;;;;;24.82;45.86;97188.86;620050;228;62805;-59
2023/04/28 01:09:24;;;;;;;;;;;;;;;24.82;45.21;97194.23;618902;229;68745;-59
2023/04/28 01:11:52;;;;;;;;;;;;;;;24.81;46.00;97193.44;620259;228;68603;-59
2023/04/28 01:14:37;;;;;;;;;;;;;;;24.80;43.79;97196.44;620411;228;39942;-59
2023/04/28 01:17:05;;;;;;;;;;;;;;;24.80;45.66;97199.13;619984;229;66451;-58
2023/04/28 01:19:32;;;;;;;;;;;;;;;24.80;45.71;97196.44;619185;229;67394;-59
2023/04/28 01:22:00;;;;;;;;;;;;;;;24.79;46.76;97189.44;619371;228;64915;-59
2023/04/28 01:24:28;;;;;;;;;;;;;;;24.78;45.65;97193.23;619240;229;69760;-59
2023/04/28 01:26:57;;;;;;;;;;;;;;;24.78;46.44;97193.23;619312;229;69148;-59
2023/04/28 01:29:25;;;;;;;;;;;;;;;24.78;46.68;97198.61;620062;228;64964;-59
2023/04/28 01:31:53;;;;;;;;;;;;;;;24.76;45.06;97195.41;620256;228;66178;-59
2023/04/28 01:34:20;;;;;;;;;;;;;;;24.76;45.76;97198.09;619694;228;66568;-59
2023/04/28 01:36:48;;;;;;;;;;;;;;;24.75;45.86;97191.92;619550;229;65013;-59
2023/04/28 01:39:16;;;;;;;;;;;;;;;24.75;45.65;97194.61;619095;228;69574;-59
2023/04/28 01:41:43;;;;;;;;;;;;;;;24.75;46.58;97193.81;620650;228;66366;-59
2023/04/28 01:44:12;;;;;;;;;;;;;;;24.74;46.89;97192.20;620367;228;65176;-59
2023/04/28 01:46:39;;;;;;;;;;;;;;;24.73;45.84;97187.92;619854;228;68604;-59
2023/04/28 01:49:07;;;;;;;;;;;;;;;24.72;45.75;97192.51;619189;229;66463;-59
2023/04/28 01:51:34;;;;;;;;;;;;;;;24.72;45.10;97191.72;619404;228;62744;-59
2023/04/28 01:54:02;;;;;;;;;;;;;;;24.71;45.84;97193.58;619412;229;68744;-59
2023/04/28 01:56:29;;;;;;;;;;;;;;;24.71;45.40;97196.27;619227;229;66469;-59
2023/04/28 01:58:57;;;;;;;;;;;;;;;24.71;46.14;97187.41;619314;229;65665;-59
2023/04/28 02:01:25;;;;;;;;;;;;;;;24.70;46.08;97194.68;619251;229;69312;-59
2023/04/28 02:03:54;;;;;;;;;;;;;;;24.69;44.26;97193.09;619726;228;68165;-59
2023/04/28 02:06:21;;;;;;;;;;;;;;;24.69;47.20;97189.58;620247;228;65137;-59
2023/04/28 02:08:49;;;;;;;;;;;;;;;24.68;46.45;97194.16;620785;228;68784;-59
2023/04/28 02:11:17;;;;;;;;;;;;;;;24.68;46.92;97194.16;619452;228;67463;-59
2023/04/28 02:13:44;;;;;;;;;;;;;;;24.67;45.43;97197.16;619805;228;62670;-59
2023/04/28 02:16:12;;;;;;;;;;;;;;;24.67;45.18;97194.47;619649;229;66518;-59
2023/04/28 02:18:39;;;;;;;;;;;;;;;24.66;45.87;97199.02;619924;229;66455;-59
2023/04/28 02:21:10;;;;;;;;;;;;;;;24.66;45.65;97209.77;619411;229;62703;-58
2023/04/28 02:23:38;;;;;;;;;;;;;;;24.66;47.59;97200.91;619872;229;68809;-59
2023/04/28 02:26:06;;;;;;;;;;;;;;;24.65;46.48;97204.70;619507;228;68507;-59
2023/04/28 02:28:33;;;;;;;;;;;;;;;24.64;46.47;97200.43;619645;229;64906;-59
2023/04/28 02:31:08;;;;;;;;;;;;;;;24.63;44.99;97212.25;620503;228;66328;-59
2023/04/28 02:33:36;;;;;;;;;;;;;;;24.61;45.99;97207.18;620436;228;68567;-59
2023/04/28 02:36:04;;;;;;;;;;;;;;;24.62;46.09;97216.03;619487;228;65649;-59
2023/04/28 02:38:32;;;;;;;;;;;;;;;24.61;46.08;97223.30;619747;228;66841;-58
2023/04/28 02:41:04;;;;;;;;;;;;;;;24.61;46.82;97215.24;613838;229;68951;-59
2023/04/28 02:43:32;;;;;;;;;;;;;;;24.59;46.68;97218.20;605694;229;66270;-59
2023/04/28 02:46:00;;;;;;;;;;;;;;;24.61;47.49;97220.62;620327;228;69635;-59
2023/04/28 02:48:27;;;;;;;;;;;;;;;24.59;46.52;97220.09;620164;228;69386;-59
2023/04/28 02:50:55;;;;;;;;;;;;;;;24.58;46.10;97211.24;619361;229;65097;-59
2023/04/28 02:53:22;;;;;;;;;;;;;;;24.57;46.21;97215.00;621035;228;69513;-60
2023/04/28 02:55:50;;;;;;;;;;;;;;;24.57;46.78;97220.38;620240;228;68471;-59
2023/04/28 02:58:18;;;;;;;;;;;;;;;24.56;45.84;97218.78;620009;228;62464;-59
2023/04/28 03:00:46;;;;;;;;;;;;;;;24.56;45.32;97224.16;619340;229;68748;-59
2023/04/28 03:03:13;;;;;;;;;;;;;;;24.54;45.69;97220.95;619406;228;66420;-59
2023/04/28 03:05:41;;;;;;;;;;;;;;;24.55;46.12;97230.63;619952;228;63009;-59
2023/04/28 03:08:08;;;;;;;;;;;;;;;24.55;45.68;97230.63;620494;228;66030;-59
2023/04/28 03:10:36;;;;;;;;;;;;;;;24.52;44.96;97239.24;619373;229;68484;-59
2023/04/28 03:13:03;;;;;;;;;;;;;;;24.52;44.35;97241.93;619353;229;62444;-59
2023/04/28 03:15:31;;;;;;;;;;;;;;;24.52;45.80;97243.82;619352;229;66092;-59
2023/04/28 03:18:00;;;;;;;;;;;;;;;24.52;45.96;97249.20;619676;229;68545;-59
2023/04/28 03:20:27;;;;;;;;;;;;;;;24.51;45.56;97247.61;619737;228;65052;-57
2023/04/28 03:22:55;;;;;;;;;;;;;;;24.50;46.66;97254.88;619916;229;68672;-58
2023/04/28 03:25:23;;;;;;;;;;;;;;;24.50;46.24;97251.36;619732;229;69326;-57
2023/04/28 03:27:51;;;;;;;;;;;;;;;24.50;46.84;97257.56;619396;229;65757;-57
2023/04/28 03:30:18;;;;;;;;;;;;;;;24.49;46.34;97264.00;619368;229;69916;-57
2023/04/28 03:32:46;;;;;;;;;;;;;;;24.49;44.91;97265.89;620774;228;66563;-58
2023/04/28 03:35:14;;;;;;;;;;;;;;;24.48;47.27;97275.84;619615;228;65669;-57
2023/04/28 03:37:42;;;;;;;;;;;;;;;24.48;45.78;97285.80;620886;228;66283;-57
2023/04/28 03:40:10;;;;;;;;;;;;;;;24.47;45.49;97285.00;619405;229;67631;-59
2023/04/28 03:42:40;;;;;;;;;;;;;;;24.46;45.70;97291.45;608006;232;45005;-59
2023/04/28 03:45:09;;;;;;;;;;;;;;;24.47;47.24;97300.30;618789;228;68492;-59
2023/04/28 03:47:37;;;;;;;;;;;;;;;24.46;46.29;97301.40;620427;228;66575;-59
2023/04/28 03:50:05;;;;;;;;;;;;;;;24.45;46.14;97308.66;619613;228;62999;-59
2023/04/28 03:52:33;;;;;;;;;;;;;;;24.44;45.09;97316.99;620072;228;66864;-60
2023/04/28 03:55:01;;;;;;;;;;;;;;;24.44;46.05;97320.48;619433;229;68541;-59
2023/04/28 03:57:29;;;;;;;;;;;;;;;24.43;44.47;97324.23;619504;228;63732;-60
2023/04/28 03:59:57;;;;;;;;;;;;;;;24.42;45.60;97325.33;619863;228;68677;-60
2023/04/28 04:02:25;;;;;;;;;;;;;;;24.42;45.67;97329.88;619394;229;66257;-60
2023/04/28 04:04:52;;;;;;;;;;;;;;;24.41;45.45;97328.28;620771;228;62672;-60
2023/04/28 04:07:22;;;;;;;;;;;;;;;24.41;44.98;97333.66;621171;228;68589;-59
2023/04/28 04:09:50;;;;;;;;;;;;;;;24.41;46.33;97337.14;619875;229;68681;-60
2023/04/28 04:12:17;;;;;;;;;;;;;;;24.40;45.68;97340.92;620074;228;63156;-60
2023/04/28 04:14:45;;;;;;;;;;;;;;;24.40;45.74;97340.92;619828;228;69034;-60
2023/04/28 04:17:13;;;;;;;;;;;;;;;24.41;44.25;97345.20;619902;228;69134;-59
2023/04/28 04:19:40;;;;;;;;;;;;;;;24.40;45.63;97345.50;620196;228;62902;-59
2023/04/28 04:22:09;;;;;;;;;;;;;;;24.41;46.55;97347.88;620454;228;45596;-59
2023/04/28 04:24:37;;;;;;;;;;;;;;;24.42;45.74;97348.67;620493;228;68462;-59
2023/04/28 04:27:05;;;;;;;;;;;;;;;24.41;45.04;97345.20;619670;228;65084;-59
2023/04/28 04:29:34;;;;;;;;;;;;;;;24.43;46.77;97347.61;619651;228;49308;-59
2023/04/28 04:32:03;;;;;;;;;;;;;;;24.43;42.57;97342.23;619348;228;45486;-59
2023/04/28 04:34:31;;;;;;;;;;;;;;;24.45;45.36;97345.48;620780;226;65187;-59
2023/04/28 04:36:58;;;;;;;;;;;;;;;24.46;44.92;97347.86;624353;226;68352;-59
2023/04/28 04:39:26;;;;;;;;;;;;;;;24.47;45.57;97341.42;626547;225;66593;-59
2023/04/28 04:41:53;;;;;;;;;;;;;;;24.48;45.50;97348.38;623221;224;62854;-58
2023/04/28 04:44:23;;;;;;;;;;;;;;;24.49;43.16;97344.60;617495;229;50891;-59
2023/04/28 04:46:52;;;;;;;;;;;;;;;24.51;43.56;97344.33;618616;227;49661;-58
2023/04/28 04:49:20;;;;;;;;;;;;;;;24.55;44.82;97353.41;618438;228;64919;-59
2023/04/28 04:51:48;;;;;;;;;;;;;;;24.56;45.93;97352.34;618115;229;66409;-59
2023/04/28 04:54:15;;;;;;;;;;;;;;;24.56;44.94;97350.44;618914;229;68449;-58
2023/04/28 04:56:43;;;;;;;;;;;;;;;24.58;43.18;97350.97;618518;228;64954;-58
2023/04/28 04:59:11;;;;;;;;;;;;;;;24.61;43.10;97356.83;617935;227;68179;-58
2023/04/28 05:01:41;;;;;;;;;;;;;;;24.62;43.66;97358.45;620628;227;48227;-58
2023/04/28 05:04:09;;;;;;;;;;;;;;;24.63;46.62;97354.66;619534;226;62957;-58
2023/04/28 05:06:37;;;;;;;;;;;;;;;24.66;45.60;97356.78;621155;228;68943;-58
2023/04/28 05:09:05;;;;;;;;;;;;;;;24.67;43.85;97358.40;621676;227;69046;-58
2023/04/28 05:11:33;;;;;;;;;;;;;;;24.68;44.56;97358.09;621648;227;64936;-58
2023/04/28 05:14:00;;;;;;;;;;;;;;;24.71;44.39;97354.03;622140;225;66955;-58
2023/04/28 05:16:28;;;;;;;;;;;;;;;24.72;47.50;97358.34;619946;229;66411;-58
2023/04/28 05:18:58;;;;;;;;;;;;;;;24.73;45.40;97349.18;619236;228;47464;-58
2023/04/28 05:21:25;;;;;;;;;;;;;;;24.75;46.47;97349.70;619267;228;68431;-58
2023/04/28 05:23:53;;;;;;;;;;;;;;;24.76;43.21;97348.60;618774;229;68815;-58
2023/04/28 05:26:21;;;;;;;;;;;;;;;24.77;43.46;97348.33;618910;229;65207;-58
2023/04/28 05:28:49;;;;;;;;;;;;;;;24.79;46.49;97348.02;620590;228;66230;-58
2023/04/28 05:31:19;;;;;;;;;;;;;;;24.81;43.59;97348.55;621277;228;66204;-57
2023/04/28 05:33:50;;;;;;;;;;;;;;;24.84;44.67;97353.34;614975;229;64980;-59
2023/04/28 05:36:18;;;;;;;;;;;;;;;24.86;42.86;97353.06;609662;231;66206;-57
2023/04/28 05:38:47;;;;;;;;;;;;;;;24.87;44.14;97350.08;612742;229;66221;-59
2023/04/28 05:41:15;;;;;;;;;;;;;;;24.89;41.74;97360.55;609223;232;65192;-58
2023/04/28 05:43:42;;;;;;;;;;;;;;;24.92;42.62;97362.66;605272;232;69387;-59
2023/04/28 05:46:10;;;;;;;;;;;;;;;24.94;46.17;97355.91;614077;229;68779;-59
2023/04/28 05:48:37;;;;;;;;;;;;;;;24.94;42.67;97355.91;617131;229;65042;-58
2023/04/28 05:51:05;;;;;;;;;;;;;;;24.96;42.78;97351.05;615128;229;68478;-59
2023/04/28 05:53:32;;;;;;;;;;;;;;;24.99;46.17;97355.02;620425;228;66188;-59
2023/04/28 05:56:00;;;;;;;;;;;;;;;24.98;41.69;97359.61;611372;229;62729;-59
2023/04/28 05:58:28;;;;;;;;;;;;;;;25.01;43.26;97358.23;612211;227;66454;-59
2023/04/28 06:00:56;;;;;;;;;;;;;;;25.02;44.29;97363.34;623241;227;69083;-59
2023/04/28 06:03:26;;;;;;;;;;;;;;;25.04;43.61;97365.72;619147;227;45020;-58
2023/04/28 06:05:53;;;;;;;;;;;;;;;25.04;43.39;97368.41;619641;229;67152;-59
2023/04/28 06:08:21;;;;;;;;;;;;;;;25.06;42.64;97360.86;618875;228;68702;-59
2023/04/28 06:10:48;;;;;;;;;;;;;;;25.05;41.39;97364.64;618596;229;64888;-59
2023/04/28 06:13:16;;;;;;;;;;;;;;;25.07;40.60;97361.66;619543;228;68145;-59
2023/04/28 06:15:43;;;;;;;;;;;;;;;25.09;44.12;97360.28;619860;228;68483;-59
2023/04/28 06:18:11;;;;;;;;;;;;;;;25.09;43.90;97356.80;620801;228;65055;-59
2023/04/28 06:20:38;;;;;;;;;;;;;;;25.10;43.20;97361.07;619162;229;66551;-59
2023/04/28 06:23:06;;;;;;;;;;;;;;;25.11;44.24;97358.11;619355;229;68412;-59
2023/04/28 06:25:34;;;;;;;;;;;;;;;25.12;40.45;97361.59;619917;229;62305;-59
2023/04/28 06:28:01;;;;;;;;;;;;;;;25.12;43.46;97359.70;619861;229;68665;-59
2023/04/28 06:30:29;;;;;;;;;;;;;;;25.15;40.03;97358.34;619403;229;69196;-59
2023/04/28 06:33:04;;;;;;;;;;;;;;;25.15;42.11;97359.14;619346;229;65257;-59
2023/04/28 06:35:34;;;;;;;;;;;;;;;25.17;42.41;97361.55;621153;228;68506;-59
2023/04/28 06:38:01;;;;;;;;;;;;;;;25.17;42.65;97356.97;619780;229;66067;-59
2023/04/28 06:40:29;;;;;;;;;;;;;;;25.19;42.46;97359.39;619043;229;65267;-59
2023/04/28 06:42:58;;;;;;;;;;;;;;;25.19;40.17;97359.39;619336;228;65888;-59
2023/04/28 06:45:27;;;;;;;;;;;;;;;25.21;42.88;97366.08;619566;228;45794;-60
2023/04/28 06:47:56;;;;;;;;;;;;;;;25.23;43.63;97363.08;621838;228;43650;-60
2023/04/28 06:50:23;;;;;;;;;;;;;;;25.23;42.78;97369.25;621379;228;68375;-59
2023/04/28 06:52:51;;;;;;;;;;;;;;;25.24;41.94;97367.39;619972;228;66369;-57
2023/04/28 06:55:18;;;;;;;;;;;;;;;25.24;41.45;97364.70;619918;228;64934;-58
2023/04/28 06:57:46;;;;;;;;;;;;;;;25.24;42.61;97367.39;620421;228;69305;-57
2023/04/28 07:00:14;;;;;;;;;;;;;;;25.25;42.87;97363.59;619448;229;67986;-59
2023/04/28 07:02:41;;;;;;;;;;;;;;;25.24;44.69;97365.49;619045;229;65045;-59
2023/04/28 07:05:09;;;;;;;;;;;;;;;25.25;41.38;97368.98;619358;228;68279;-58
2023/04/28 07:07:41;;;;;;;;;;;;;;;25.27;44.55;97366.01;618774;228;68488;-59
2023/04/28 07:10:06;;;;;;;;;;;;;;;25.26;41.84;97370.56;618857;227;63112;-58
2023/04/28 07:12:34;;;;;;;;;;;;;;;25.25;42.94;97363.59;620387;227;68282;-59
2023/04/28 07:15:01;;;;;;;;;;;;;;;25.24;42.39;97362.01;618751;227;68173;-59
2023/04/28 07:17:28;;;;;;;;;;;;;;;25.26;39.58;97370.56;614709;228;65184;-61
2023/04/28 07:19:56;;;;;;;;;;;;;;;25.29;42.29;97370.02;617776;228;66184;-60
2023/04/28 07:22:23;;;;;;;;;;;;;;;25.31;41.38;97370.50;615920;229;66556;-61
2023/04/28 07:24:52;;;;;;;;;;;;;;;25.31;40.41;97377.77;616649;228;62707;-61
2023/04/28 07:27:19;;;;;;;;;;;;;;;25.32;40.17;97377.50;620024;227;66109;-60
2023/04/28 07:29:47;;;;;;;;;;;;;;;25.33;42.41;97371.02;617089;228;68710;-60
2023/04/28 07:32:14;;;;;;;;;;;;;;;25.33;41.31;97376.39;616157;229;62923;-60
2023/04/28 07:34:42;;;;;;;;;;;;;;;25.34;43.11;97380.67;618247;228;68862;-60
2023/04/28 07:37:10;;;;;;;;;;;;;;;25.34;40.24;97375.30;614885;228;68626;-60
2023/04/28 07:39:39;;;;;;;;;;;;;;;25.35;41.95;97376.91;620159;228;65026;-60
2023/04/28 07:42:07;;;;;;;;;;;;;;;25.36;43.06;97375.02;614738;228;66455;-60
2023/04/28 07:44:35;;;;;;;;;;;;;;;25.34;40.86;97369.91;614524;229;68472;-60
2023/04/28 07:47:02;;;;;;;;;;;;;;;25.35;40.60;97374.22;616940;228;64890;-60
2023/04/28 07:49:30;;;;;;;;;;;;;;;25.35;43.69;97370.73;618140;228;68518;-60
2023/04/28 07:51:58;;;;;;;;;;;;;;;25.35;45.02;97368.84;620508;228;68508;-60
2023/04/28 07:54:25;;;;;;;;;;;;;;;25.35;41.98;97371.53;619703;228;64891;-60
2023/04/28 07:56:52;;;;;;;;;;;;;;;25.36;45.42;97375.81;619019;228;68594;-60
2023/04/28 07:59:20;;;;;;;;;;;;;;;25.36;44.51;97365.05;617491;228;68493;-60
2023/04/28 08:01:47;;;;;;;;;;;;;;;25.35;44.78;97370.73;615313;228;63045;-60
2023/04/28 08:04:15;;;;;;;;;;;;;;;25.35;44.83;97374.22;620007;228;66506;-60
2023/04/28 08:06:42;;;;;;;;;;;;;;;25.34;42.85;97374.50;617736;228;66554;-60
2023/04/28 08:09:10;;;;;;;;;;;;;;;25.34;43.95;97372.61;615637;228;62917;-60
2023/04/28 08:11:38;;;;;;;;;;;;;;;25.35;43.03;97368.84;617993;228;68504;-60
2023/04/28 08:14:05;;;;;;;;;;;;;;;25.35;42.25;97370.73;618840;228;68470;-60
2023/04/28 08:16:35;;;;;;;;;;;;;;;25.35;45.00;97366.15;617584;228;62878;-60
2023/04/28 08:19:02;;;;;;;;;;;;;;;25.35;45.56;97363.46;618953;228;69542;-60
2023/04/28 08:21:29;;;;;;;;;;;;;;;25.34;43.92;97363.73;617361;228;68991;-59
2023/04/28 08:23:57;;;;;;;;;;;;;;;25.34;44.67;97355.67;619735;227;65201;-60
2023/04/28 08:26:24;;;;;;;;;;;;;;;25.33;42.02;97356.77;620740;225;68818;-60
2023/04/28 08:28:52;;;;;;;;;;;;;;;25.34;43.34;97352.98;617729;228;68711;-60
2023/04/28 08:31:20;;;;;;;;;;;;;;;25.34;44.03;97355.67;617614;228;65022;-60
2023/04/28 08:33:50;;;;;;;;;;;;;;;25.36;45.08;97350.80;620818;227;68751;-59
2023/04/28 08:36:18;;;;;;;;;;;;;;;25.35;45.13;97357.28;617982;227;66564;-60
2023/04/28 08:38:46;;;;;;;;;;;;;;;25.35;45.29;97354.59;619011;228;62919;-60
2023/04/28 08:41:15;;;;;;;;;;;;;;;25.33;44.20;97354.88;615645;228;68363;-59
2023/04/28 08:43:43;;;;;;;;;;;;;;;25.34;45.24;97356.46;615696;227;68530;-59
2023/04/28 08:46:11;;;;;;;;;;;;;;;25.34;44.75;97348.39;615830;229;65048;-59
2023/04/28 08:48:40;;;;;;;;;;;;;;;25.35;45.22;97344.62;620057;228;66959;-59
2023/04/28 08:51:08;;;;;;;;;;;;;;;25.36;43.74;97345.42;618016;225;68788;-59
2023/04/28 08:53:37;;;;;;;;;;;;;;;25.36;45.51;97348.91;621930;227;63029;-59
2023/04/28 08:56:06;;;;;;;;;;;;;;;25.36;44.74;97343.53;616608;228;68863;-59
2023/04/28 08:58:36;;;;;;;;;;;;;;;25.36;44.58;97343.53;614276;231;66599;-59
2023/04/28 09:01:04;;;;;;;;;;;;;;;25.37;44.53;97339.77;614223;231;65121;-60
2023/04/28 09:03:32;;;;;;;;;;;;;;;25.38;46.48;97335.18;614348;230;66619;-59
2023/04/28 09:06:01;;;;;;;;;;;;;;;25.37;44.23;97339.77;614264;231;68737;-61
2023/04/28 09:08:28;;;;;;;;;;;;;;;25.38;42.20;97335.18;614344;231;64946;-59
2023/04/28 09:11:08;;;;;;;;;;;;;;;25.39;45.47;97337.56;614301;231;68848;-59
2023/04/28 09:13:36;;;;;;;;;;;;;;;25.38;41.57;97317.14;614348;231;68795;-59
2023/04/28 09:16:04;;;;;;;;;;;;;;;25.39;46.15;97316.03;614270;231;65157;-60
2023/04/28 09:18:32;;;;;;;;;;;;;;;25.40;44.55;97314.14;614354;231;68880;-59
2023/04/28 09:21:07;;;;;;;;;;;;;;;25.40;42.03;97319.52;614340;231;68660;-59
2023/04/28 09:23:35;;;;;;;;;;;;;;;25.40;42.65;97317.66;614333;231;65068;-59
2023/04/28 09:26:04;;;;;;;;;;;;;;;25.42;41.43;97314.66;614335;231;66593;-59
2023/04/28 09:28:32;;;;;;;;;;;;;;;25.42;44.66;97296.61;614302;231;68460;-59
2023/04/28 09:31:00;;;;;;;;;;;;;;;25.43;41.26;97308.99;614270;231;65177;-59
2023/04/28 09:33:27;;;;;;;;;;;;;;;25.45;42.93;97314.89;614276;231;68835;-59
2023/04/28 09:35:55;;;;;;;;;;;;;;;25.46;43.70;97308.41;614320;231;68992;-59
2023/04/28 09:38:23;;;;;;;;;;;;;;;25.46;41.50;97297.64;614257;231;65161;-59
2023/04/28 09:40:51;;;;;;;;;;;;;;;25.49;41.66;97292.77;614282;231;68784;-59
2023/04/28 09:43:32;;;;;;;;;;;;;;;25.49;41.44;97295.47;614255;231;68741;-59
2023/04/28 09:46:01;;;;;;;;;;;;;;;25.49;39.82;97287.39;614318;231;65125;-58
2023/04/28 09:48:32;;;;;;;;;;;;;;;25.50;40.52;97288.98;614312;231;68755;-59
2023/04/28 09:51:01;;;;;;;;;;;;;;;25.51;40.19;97293.26;614307;231;68776;-59
2023/04/28 09:53:30;;;;;;;;;;;;;;;25.51;43.09;97285.19;614344;231;62987;-59
2023/04/28 09:55:58;;;;;;;;;;;;;;;25.50;43.45;97283.59;614276;231;66405;-59
2023/04/28 09:58:26;;;;;;;;;;;;;;;25.50;44.22;97289.77;614284;231;68706;-59
2023/04/28 10:00:56;;;;;;;;;;;;;;;25.51;43.69;97291.39;614304;231;65029;-59
2023/04/28 10:03:25;;;;;;;;;;;;;;;25.51;44.80;97285.19;614081;231;69183;-59
2023/04/28 10:05:53;;;;;;;;;;;;;;;25.51;42.53;97280.63;614126;231;68785;-59
2023/04/28 10:08:21;;;;;;;;;;;;;;;25.52;44.53;97271.45;614269;231;62957;-58
2023/04/28 10:10:51;;;;;;;;;;;;;;;25.51;45.23;97271.73;614312;231;68830;-60
2023/04/28 10:13:22;;;;;;;;;;;;;;;25.51;42.74;97269.04;613865;231;68813;-59
2023/04/28 10:15:57;;;;;;;;;;;;;;;25.49;44.62;97277.42;614217;231;65111;-59
2023/04/28 10:18:23;;;;;;;;;;;;;;;25.47;40.60;97266.94;614222;231;69619;-60
2023/04/28 10:20:52;;;;;;;;;;;;;;;25.49;43.21;97265.87;615127;230;66645;-60
2023/04/28 10:23:26;;;;;;;;;;;;;;;25.47;43.86;97275.02;615082;230;63029;-60
2023/04/28 10:25:58;;;;;;;;;;;;;;;25.47;42.92;97271.53;613981;231;68900;-59
2023/04/28 10:28:26;;;;;;;;;;;;;;;25.47;42.00;97263.45;614257;230;66733;-59
2023/04/28 10:31:13;;;;;;;;;;;;;;;25.47;42.92;97266.94;614162;231;65086;-60
2023/04/28 10:33:41;;;;;;;;;;;;;;;25.47;42.52;97263.45;614113;231;68816;-59
2023/04/28 10:36:09;;;;;;;;;;;;;;;25.46;43.32;97259.97;614259;231;69668;-60
2023/04/28 10:38:38;;;;;;;;;;;;;;;25.46;43.04;97265.36;600616;231;64724;-60
2023/04/28 10:41:07;;;;;;;;;;;;;;;25.46;43.18;97262.66;613455;227;69394;-60
2023/04/28 10:43:36;;;;;;;;;;;;;;;25.47;43.54;97264.25;618828;228;68464;-60
2023/04/28 10:46:05;;;;;;;;;;;;;;;25.48;42.90;97254.28;618002;227;63066;-60
2023/04/28 10:48:39;;;;;;;;;;;;;;;25.47;43.65;97255.38;618635;228;68821;-60
2023/04/28 10:51:06;;;;;;;;;;;;;;;25.46;43.61;97245.73;618608;227;69116;-59
2023/04/28 10:53:44;;;;;;;;;;;;;;;25.47;43.84;97252.70;618231;228;64981;-60
2023/04/28 10:56:20;;;;;;;;;;;;;;;25.48;45.20;97248.90;618222;228;66594;-59
2023/04/28 10:58:49;;;;;;;;;;;;;;;25.48;43.48;97254.28;618421;228;68724;-60
2023/04/28 11:01:28;;;;;;;;;;;;;;;25.49;44.15;97247.03;618076;228;65092;-60
2023/04/28 11:04:06;;;;;;;;;;;;;;;25.50;43.92;97262.07;618237;228;68833;-60
2023/04/28 11:06:38;;;;;;;;;;;;;;;25.49;43.40;97249.72;618612;228;69079;-58
2023/04/28 11:09:16;;;;;;;;;;;;;;;25.49;44.02;97238.96;618237;229;63083;-61
2023/04/28 11:12:09;;;;;;;;;;;;;;;25.49;43.41;97244.34;618293;229;68320;-61
2023/04/28 11:14:36;;;;;;;;;;;;;;;25.49;44.06;97244.34;618052;229;66473;-59
2023/04/28 11:17:04;;;;;;;;;;;;;;;25.49;44.27;97238.96;618099;229;63033;-59
2023/04/28 11:19:34;;;;;;;;;;;;;;;25.49;42.22;97239.75;618377;228;68845;-59
2023/04/28 11:22:02;;;;;;;;;;;;;;;25.50;43.38;97235.16;618029;229;68545;-60
2023/04/28 11:24:31;;;;;;;;;;;;;;;25.51;43.45;97234.06;618269;228;63070;-60
2023/04/28 11:26:58;;;;;;;;;;;;;;;25.50;43.35;97221.70;618341;228;68529;-60
2023/04/28 11:29:36;;;;;;;;;;;;;;;25.51;43.55;97228.67;618287;228;68473;-60
2023/04/28 11:32:05;;;;;;;;;;;;;;;25.50;43.10;97233.27;618007;229;65090;-59
2023/04/28 11:34:33;;;;;;;;;;;;;;;25.49;44.25;97231.68;618060;229;66724;-59
2023/04/28 11:37:01;;;;;;;;;;;;;;;25.50;43.56;97229.78;618298;229;68796;-59
2023/04/28 11:39:30;;;;;;;;;;;;;;;25.50;43.44;97232.47;618219;229;65008;-58
2023/04/28 11:42:01;;;;;;;;;;;;;;;25.49;42.72;97233.58;618314;228;68852;-60
2023/04/28 11:44:30;;;;;;;;;;;;;;;25.50;43.44;97235.16;618268;229;68859;-60
2023/04/28 11:46:59;;;;;;;;;;;;;;;25.50;43.38;97224.41;618336;228;62982;-60
2023/04/28 11:49:30;;;;;;;;;;;;;;;25.51;43.23;97221.42;618380;228;68950;-60
2023/04/28 11:51:59;;;;;;;;;;;;;;;25.51;42.94;97225.98;618347;228;66647;-60
2023/04/28 11:54:27;;;;;;;;;;;;;;;25.52;44.53;97224.91;618253;228;65012;-60
2023/04/28 11:56:56;;;;;;;;;;;;;;;25.52;43.67;97228.39;618285;228;68809;-60
2023/04/28 11:59:31;;;;;;;;;;;;;;;25.52;43.94;97224.91;618198;228;66457;-61
2023/04/28 12:01:59;;;;;;;;;;;;;;;25.52;42.65;97216.84;618226;229;64994;-60
2023/04/28 12:04:29;;;;;;;;;;;;;;;25.53;43.04;97213.84;618428;228;66600;-60
2023/04/28 12:07:00;;;;;;;;;;;;;;;25.52;41.84;97208.77;618391;228;69087;-60
2023/04/28 12:09:28;;;;;;;;;;;;;;;25.53;42.68;97199.59;618404;228;65187;-60
2023/04/28 12:11:57;;;;;;;;;;;;;;;25.52;44.15;97198.00;618358;228;68847;-60
2023/04/28 12:14:25;;;;;;;;;;;;;;;25.52;43.43;97198.00;618266;229;68715;-60
2023/04/28 12:16:52;;;;;;;;;;;;;;;25.52;43.60;97206.08;620314;227;63039;-60
2023/04/28 12:19:20;;;;;;;;;;;;;;;25.51;44.49;97194.52;615033;228;66600;-61
2023/04/28 12:22:00;;;;;;;;;;;;;;;25.52;44.43;97195.31;618396;228;66678;-60
2023/04/28 12:24:28;;;;;;;;;;;;;;;25.52;42.76;97206.08;615868;228;65019;-60
2023/04/28 12:26:58;;;;;;;;;;;;;;;25.58;36.84;97191.43;620635;228;68491;-58
2023/04/28 12:29:39;;;;;;;;;;;;;;;25.57;37.16;97196.02;615512;229;66570;-58
2023/04/28 12:32:08;;;;;;;;;;;;;;;25.54;39.62;97191.23;620611;227;63072;-59
2023/04/28 12:34:36;;;;;;;;;;;;;;;25.50;37.76;97194.80;618360;226;68988;-58
2023/04/28 12:37:06;;;;;;;;;;;;;;;25.47;37.04;97188.12;616993;229;48285;-59
2023/04/28 12:39:34;;;;;;;;;;;;;;;25.44;36.92;97181.44;618601;226;62993;-59
2023/04/28 12:42:02;;;;;;;;;;;;;;;25.43;38.22;97179.84;615065;230;68793;-58
2023/04/28 12:44:38;;;;;;;;;;;;;;;25.43;37.16;97168.30;615370;229;68699;-58
2023/04/28 12:47:03;;;;;;;;;;;;;;;25.43;39.05;97165.61;619458;228;65124;-59
2023/04/28 12:49:30;;;;;;;;;;;;;;;25.42;39.05;97164.78;615682;229;68783;-59
2023/04/28 12:51:58;;;;;;;;;;;;;;;25.41;39.17;97157.02;616141;229;68629;-60
2023/04/28 12:54:25;;;;;;;;;;;;;;;25.38;34.83;97161.10;619972;228;65038;-59